createdAt,value
2018-05-21T00:00:54.778Z,4.00
2018-05-21T00:01:54.790Z,4.00
2018-05-21T00:02:54.861Z,4.00
2018-05-21T00:03:54.834Z,4.00
2018-05-21T00:04:54.842Z,4.00
2018-05-21T00:05:54.866Z,4.00
2018-05-21T00:06:54.883Z,4.00
2018-05-21T00:07:54.974Z,4.00
2018-05-21T00:08:54.959Z,4.00
2018-05-21T00:09:54.977Z,4.00
2018-05-21T00:10:54.944Z,4.00
2018-05-21T00:11:54.967Z,4.00
2018-05-21T00:12:54.986Z,4.00
2018-05-21T00:13:55.002Z,4.00
2018-05-21T00:14:55.068Z,4.00
2018-05-21T00:15:55.029Z,4.00
2018-05-21T00:16:55.047Z,4.00
2018-05-21T00:17:55.073Z,4.00
2018-05-21T00:18:55.085Z,4.00
2018-05-21T00:19:55.105Z,4.00
2018-05-21T00:20:55.167Z,4.00
2018-05-21T00:21:55.136Z,4.00
2018-05-21T00:22:55.153Z,4.00
2018-05-21T00:23:55.164Z,4.00
2018-05-21T00:24:55.186Z,4.00
2018-05-21T00:25:55.206Z,4.00
2018-05-21T00:26:55.216Z,4.00
2018-05-21T00:27:55.239Z,4.00
2018-05-21T00:28:55.254Z,4.00
2018-05-21T00:29:55.293Z,4.00
2018-05-21T00:30:55.286Z,4.00
2018-05-21T00:31:55.352Z,4.00
2018-05-21T00:32:55.324Z,4.00
2018-05-21T00:33:55.342Z,4.00
2018-05-21T00:34:55.353Z,4.00
2018-05-21T00:35:55.389Z,4.00
2018-05-21T00:36:55.386Z,4.00
2018-05-21T00:37:55.456Z,4.00
2018-05-21T00:38:55.420Z,4.00
2018-05-21T00:39:55.438Z,4.00
2018-05-21T00:40:55.450Z,4.00
2018-05-21T00:41:55.475Z,4.00
2018-05-21T00:42:55.489Z,4.00
2018-05-21T00:43:55.503Z,4.00
2018-05-21T00:44:55.521Z,4.00
2018-05-21T00:45:55.545Z,4.00
2018-05-21T00:46:55.577Z,4.00
2018-05-21T00:47:55.574Z,4.00
2018-05-21T00:48:55.595Z,4.00
2018-05-21T00:49:55.658Z,4.00
2018-05-21T00:50:55.627Z,0.00
2018-05-21T00:51:55.638Z,4.00
2018-05-21T00:52:55.655Z,4.00
2018-05-21T00:53:55.673Z,4.00
2018-05-21T00:54:55.695Z,4.00
2018-05-21T00:55:55.759Z,4.00
2018-05-21T00:56:55.730Z,4.00
2018-05-21T00:57:55.746Z,4.00
2018-05-21T00:58:55.769Z,4.00
2018-05-21T00:59:55.782Z,4.00
2018-05-21T01:00:55.794Z,4.00
2018-05-21T01:01:55.864Z,4.00
2018-05-21T01:02:55.838Z,4.00
2018-05-21T01:03:55.847Z,4.00
2018-05-21T01:04:55.900Z,4.00
2018-05-21T01:05:55.884Z,4.00
2018-05-21T01:06:55.902Z,4.00
2018-05-21T01:07:55.911Z,4.00
2018-05-21T01:08:55.929Z,4.00
2018-05-21T01:09:55.948Z,4.00
2018-05-21T01:10:55.988Z,4.00
2018-05-21T01:11:55.983Z,4.00
2018-05-21T01:12:56.002Z,4.00
2018-05-21T01:13:56.018Z,4.00
2018-05-21T01:14:56.035Z,4.00
2018-05-21T01:15:56.054Z,4.00
2018-05-21T01:16:56.070Z,4.00
2018-05-21T01:17:56.087Z,4.00
2018-05-21T01:18:56.104Z,4.00
2018-05-21T01:19:56.119Z,4.00
2018-05-21T01:20:56.137Z,4.00
2018-05-21T01:21:56.155Z,4.00
2018-05-21T01:22:56.171Z,4.00
2018-05-21T01:23:56.187Z,4.00
2018-05-21T01:24:56.206Z,4.00
2018-05-21T01:25:56.223Z,4.00
2018-05-21T01:26:56.243Z,4.00
2018-05-21T01:27:56.255Z,4.00
2018-05-21T01:28:56.275Z,4.00
2018-05-21T01:29:56.288Z,4.00
2018-05-21T01:30:56.310Z,4.00
2018-05-21T01:31:56.330Z,4.00
2018-05-21T01:32:56.341Z,4.00
2018-05-21T01:33:56.357Z,4.00
2018-05-21T01:34:56.376Z,4.00
2018-05-21T01:35:56.476Z,4.00
2018-05-21T01:36:56.415Z,4.00
2018-05-21T01:37:56.480Z,4.00
2018-05-21T01:38:56.444Z,4.00
2018-05-21T01:39:56.461Z,4.00
2018-05-21T01:40:56.485Z,4.00
2018-05-21T01:41:56.524Z,0.00
2018-05-21T01:42:56.515Z,4.00
2018-05-21T01:43:56.532Z,4.00
2018-05-21T01:44:56.547Z,4.00
2018-05-21T01:45:56.568Z,4.00
2018-05-21T01:46:56.579Z,4.00
2018-05-21T01:47:56.652Z,4.00
2018-05-21T01:48:56.612Z,4.00
2018-05-21T01:49:56.688Z,4.00
2018-05-21T01:50:56.646Z,4.00
2018-05-21T01:51:56.668Z,4.00
2018-05-21T01:52:56.687Z,4.00
2018-05-21T01:53:56.709Z,4.00
2018-05-21T01:54:56.726Z,4.00
2018-05-21T01:55:56.740Z,4.00
2018-05-21T01:56:56.756Z,4.00
2018-05-21T01:57:56.785Z,4.00
2018-05-21T01:58:56.795Z,4.00
2018-05-21T01:59:56.827Z,4.00
2018-05-21T02:00:56.829Z,4.00
2018-05-21T02:01:56.840Z,4.00
2018-05-21T02:02:56.859Z,4.00
2018-05-21T02:03:56.880Z,4.00
2018-05-21T02:04:56.892Z,4.00
2018-05-21T02:05:56.910Z,4.00
2018-05-21T02:06:56.927Z,4.00
2018-05-21T02:07:56.945Z,4.00
2018-05-21T02:08:56.966Z,4.00
2018-05-21T02:09:56.979Z,4.00
2018-05-21T02:10:56.996Z,4.00
2018-05-21T02:11:57.017Z,4.00
2018-05-21T02:12:57.059Z,4.00
2018-05-21T02:13:57.103Z,0.00
2018-05-21T02:14:57.064Z,4.00
2018-05-21T02:15:57.082Z,4.00
2018-05-21T02:16:57.101Z,4.00
2018-05-21T02:17:57.121Z,4.00
2018-05-21T02:18:57.159Z,4.00
2018-05-21T02:19:57.270Z,4.00
2018-05-21T02:20:57.167Z,4.00
2018-05-21T02:21:57.192Z,4.00
2018-05-21T02:22:57.201Z,4.00
2018-05-21T02:23:57.219Z,4.00
2018-05-21T02:24:57.238Z,4.00
2018-05-21T02:25:57.256Z,4.00
2018-05-21T02:26:57.312Z,4.00
2018-05-21T02:27:57.292Z,4.00
2018-05-21T02:28:57.312Z,4.00
2018-05-21T02:29:57.324Z,4.00
2018-05-21T02:30:57.345Z,4.00
2018-05-21T02:31:57.374Z,4.00
2018-05-21T02:32:57.376Z,4.00
2018-05-21T02:33:57.391Z,0.00
2018-05-21T02:34:57.412Z,4.00
2018-05-21T02:35:57.427Z,4.00
2018-05-21T02:36:57.446Z,0.00
2018-05-21T02:37:57.539Z,0.00
2018-05-21T02:38:57.486Z,0.00
2018-05-21T02:39:57.498Z,4.00
2018-05-21T02:40:57.521Z,4.00
2018-05-21T02:41:57.534Z,0.00
2018-05-21T02:42:57.549Z,0.00
2018-05-21T02:43:57.643Z,0.00
2018-05-21T02:44:57.589Z,0.00
2018-05-21T02:45:57.601Z,0.00
2018-05-21T02:46:57.623Z,0.00
2018-05-21T02:47:57.637Z,4.00
2018-05-21T02:48:57.663Z,4.00
2018-05-21T02:49:57.670Z,0.00
2018-05-21T02:50:57.687Z,4.00
2018-05-21T02:51:57.709Z,4.00
2018-05-21T02:52:57.728Z,0.00
2018-05-21T02:53:57.744Z,0.00
2018-05-21T02:54:57.758Z,4.00
2018-05-21T02:55:57.790Z,4.00
2018-05-21T02:56:57.864Z,0.00
2018-05-21T02:57:57.819Z,0.00
2018-05-21T02:58:57.822Z,0.00
2018-05-21T02:59:57.847Z,4.00
2018-05-21T03:00:57.860Z,4.00
2018-05-21T03:01:57.883Z,4.00
2018-05-21T03:02:57.948Z,4.00
2018-05-21T03:03:57.909Z,4.00
2018-05-21T03:04:57.929Z,4.00
2018-05-21T03:05:57.946Z,4.00
2018-05-21T03:06:57.969Z,4.00
2018-05-21T03:07:57.988Z,4.00
2018-05-21T03:08:58.014Z,4.00
2018-05-21T03:09:58.022Z,4.00
2018-05-21T03:10:58.031Z,4.00
2018-05-21T03:11:58.054Z,4.00
2018-05-21T03:12:58.076Z,4.00
2018-05-21T03:13:58.090Z,4.00
2018-05-21T03:14:58.161Z,4.00
2018-05-21T03:15:58.115Z,4.00
2018-05-21T03:16:58.142Z,4.00
2018-05-21T03:17:58.154Z,4.00
2018-05-21T03:18:58.218Z,4.00
2018-05-21T03:19:58.192Z,4.00
2018-05-21T03:20:58.249Z,4.00
2018-05-21T03:21:58.225Z,0.00
2018-05-21T03:22:58.239Z,4.00
2018-05-21T03:23:58.261Z,4.00
2018-05-21T03:24:58.329Z,0.00
2018-05-21T03:25:58.297Z,4.00
2018-05-21T03:26:58.343Z,4.00
2018-05-21T03:27:58.331Z,4.00
2018-05-21T03:28:58.341Z,4.00
2018-05-21T03:29:58.364Z,4.00
2018-05-21T03:30:58.432Z,4.00
2018-05-21T03:31:58.395Z,4.00
2018-05-21T03:32:58.451Z,4.00
2018-05-21T03:33:58.429Z,4.00
2018-05-21T03:34:58.445Z,4.00
2018-05-21T03:35:58.462Z,4.00
2018-05-21T03:36:58.544Z,4.00
2018-05-21T03:37:58.497Z,4.00
2018-05-21T03:38:58.573Z,4.00
2018-05-21T03:39:58.537Z,4.00
2018-05-21T03:40:58.557Z,0.00
2018-05-21T03:41:58.572Z,4.00
2018-05-21T03:42:58.591Z,4.00
2018-05-21T03:43:58.601Z,4.00
2018-05-21T03:44:58.632Z,4.00
2018-05-21T03:45:58.636Z,4.00
2018-05-21T03:46:58.659Z,4.00
2018-05-21T03:47:58.669Z,4.00
2018-05-21T03:48:58.749Z,4.00
2018-05-21T03:49:58.710Z,4.00
2018-05-21T03:50:58.731Z,4.00
2018-05-21T03:51:58.745Z,4.00
2018-05-21T03:52:58.761Z,4.00
2018-05-21T03:53:58.773Z,4.00
2018-05-21T03:54:58.792Z,4.00
2018-05-21T03:55:58.827Z,4.00
2018-05-21T03:56:58.872Z,4.00
2018-05-21T03:57:58.842Z,4.00
2018-05-21T03:58:58.863Z,4.00
2018-05-21T03:59:58.878Z,4.00
2018-05-21T04:00:58.947Z,4.00
2018-05-21T04:01:58.916Z,4.00
2018-05-21T04:02:58.930Z,4.00
2018-05-21T04:03:58.942Z,4.00
2018-05-21T04:04:58.962Z,4.00
2018-05-21T04:05:58.981Z,4.00
2018-05-21T04:06:59.000Z,4.00
2018-05-21T04:07:59.010Z,4.00
2018-05-21T04:08:59.035Z,4.00
2018-05-21T04:09:59.052Z,4.00
2018-05-21T04:10:59.068Z,4.00
2018-05-21T04:11:59.139Z,4.00
2018-05-21T04:12:59.101Z,4.00
2018-05-21T04:13:59.118Z,4.00
2018-05-21T04:14:59.129Z,4.00
2018-05-21T04:15:59.151Z,4.00
2018-05-21T04:16:59.169Z,4.00
2018-05-21T04:17:59.189Z,4.00
2018-05-21T04:18:59.253Z,4.00
2018-05-21T04:19:59.216Z,4.00
2018-05-21T04:20:59.239Z,4.00
2018-05-21T04:21:59.254Z,4.00
2018-05-21T04:22:59.266Z,4.00
2018-05-21T04:23:59.290Z,4.00
2018-05-21T04:24:59.355Z,4.00
2018-05-21T04:25:59.316Z,4.00
2018-05-21T04:26:59.347Z,4.00
2018-05-21T04:27:59.355Z,4.00
2018-05-21T04:28:59.372Z,4.00
2018-05-21T04:29:59.390Z,4.00
2018-05-21T04:30:59.457Z,4.00
2018-05-21T04:31:59.424Z,4.00
2018-05-21T04:32:59.525Z,4.00
2018-05-21T04:33:59.457Z,4.00
2018-05-21T04:34:59.472Z,4.00
2018-05-21T04:35:59.499Z,4.00
2018-05-21T04:36:59.557Z,4.00
2018-05-21T04:37:59.527Z,4.00
2018-05-21T04:38:59.550Z,4.00
2018-05-21T04:39:59.557Z,4.00
2018-05-21T04:40:59.574Z,4.00
2018-05-21T04:41:59.590Z,4.00
2018-05-21T04:42:59.604Z,4.00
2018-05-21T04:43:59.627Z,4.00
2018-05-21T04:44:59.639Z,4.00
2018-05-21T04:45:59.658Z,0.00
2018-05-21T04:46:59.672Z,0.00
2018-05-21T04:47:59.692Z,0.00
2018-05-21T04:48:59.705Z,0.00
2018-05-21T04:49:59.719Z,0.00
2018-05-21T04:50:59.736Z,0.00
2018-05-21T04:51:59.753Z,4.00
2018-05-21T04:52:59.776Z,4.00
2018-05-21T04:53:59.796Z,4.00
2018-05-21T04:54:59.858Z,4.00
2018-05-21T04:55:59.829Z,4.00
2018-05-21T04:56:59.841Z,4.00
2018-05-21T04:57:59.863Z,8.00
2018-05-21T04:58:59.878Z,4.00
2018-05-21T04:59:59.892Z,8.00
2018-05-21T05:00:59.958Z,8.00
2018-05-21T05:01:59.930Z,8.00
2018-05-21T05:02:59.980Z,8.00
2018-05-21T05:03:59.961Z,8.00
2018-05-21T05:04:59.980Z,12.00
2018-05-21T05:05:59.992Z,16.00
2018-05-21T05:07:00.058Z,16.00
2018-05-21T05:08:00.026Z,20.00
2018-05-21T05:09:00.118Z,20.00
2018-05-21T05:10:00.061Z,24.00
2018-05-21T05:11:00.075Z,28.00
2018-05-21T05:12:00.092Z,32.00
2018-05-21T05:13:00.157Z,36.00
2018-05-21T05:14:00.128Z,40.00
2018-05-21T05:15:00.201Z,48.00
2018-05-21T05:16:00.161Z,56.00
2018-05-21T05:17:00.178Z,64.00
2018-05-21T05:18:00.196Z,64.00
2018-05-21T05:19:00.215Z,76.00
2018-05-21T05:20:00.233Z,84.00
2018-05-21T05:21:00.385Z,96.00
2018-05-21T05:22:00.262Z,104.00
2018-05-21T05:23:00.281Z,112.00
2018-05-21T05:24:00.293Z,128.00
2018-05-21T05:25:00.315Z,140.00
2018-05-21T05:26:00.335Z,156.00
2018-05-21T05:27:00.394Z,168.00
2018-05-21T05:28:00.364Z,180.00
2018-05-21T05:29:00.377Z,200.00
2018-05-21T05:30:00.396Z,216.00
2018-05-21T05:31:00.472Z,232.00
2018-05-21T05:32:00.433Z,252.00
2018-05-21T05:33:00.527Z,268.00
2018-05-21T05:34:00.474Z,284.00
2018-05-21T05:35:00.482Z,304.00
2018-05-21T05:36:00.589Z,324.00
2018-05-21T05:37:00.567Z,344.00
2018-05-21T05:38:00.533Z,368.00
2018-05-21T05:39:00.600Z,388.00
2018-05-21T05:40:00.569Z,412.00
2018-05-21T05:41:00.590Z,436.00
2018-05-21T05:42:00.613Z,460.00
2018-05-21T05:43:00.617Z,484.00
2018-05-21T05:44:00.638Z,508.00
2018-05-21T05:45:00.681Z,532.00
2018-05-21T05:46:00.671Z,560.00
2018-05-21T05:47:00.694Z,588.00
2018-05-21T05:48:00.701Z,612.00
2018-05-21T05:49:00.779Z,636.00
2018-05-21T05:50:00.738Z,668.00
2018-05-21T05:51:00.834Z,692.00
2018-05-21T05:52:00.773Z,720.00
2018-05-21T05:53:00.785Z,744.00
2018-05-21T05:54:00.803Z,772.00
2018-05-21T05:55:00.825Z,804.00
2018-05-21T05:56:00.839Z,824.00
2018-05-21T05:57:00.930Z,848.00
2018-05-21T05:58:00.874Z,876.00
2018-05-21T05:59:00.889Z,900.00
2018-05-21T06:00:00.912Z,924.00
2018-05-21T06:01:00.987Z,944.00
2018-05-21T06:02:00.943Z,976.00
2018-05-21T06:03:00.960Z,1000.00
2018-05-21T06:04:00.976Z,1024.00
2018-05-21T06:05:00.993Z,1048.00
2018-05-21T06:06:01.014Z,1080.00
2018-05-21T06:07:01.027Z,1112.00
2018-05-21T06:08:01.045Z,1140.00
2018-05-21T06:09:01.129Z,1180.00
2018-05-21T06:10:01.076Z,1216.00
2018-05-21T06:11:01.093Z,1244.00
2018-05-21T06:12:01.110Z,1272.00
2018-05-21T06:13:01.127Z,1300.00
2018-05-21T06:14:01.156Z,1316.00
2018-05-21T06:15:01.182Z,1312.00
2018-05-21T06:16:01.185Z,1304.00
2018-05-21T06:17:01.202Z,1324.00
2018-05-21T06:18:01.221Z,1356.00
2018-05-21T06:19:01.283Z,1380.00
2018-05-21T06:20:01.252Z,1468.00
2018-05-21T06:21:01.338Z,1500.00
2018-05-21T06:22:01.287Z,1532.00
2018-05-21T06:23:01.312Z,1572.00
2018-05-21T06:24:01.317Z,1600.00
2018-05-21T06:25:01.390Z,1636.00
2018-05-21T06:26:01.450Z,1688.00
2018-05-21T06:27:01.377Z,1736.00
2018-05-21T06:28:01.383Z,1784.00
2018-05-21T06:29:01.405Z,1852.00
2018-05-21T06:30:01.424Z,1904.00
2018-05-21T06:31:01.492Z,1984.00
2018-05-21T06:32:01.455Z,2084.00
2018-05-21T06:33:01.479Z,2168.00
2018-05-21T06:34:01.565Z,2260.00
2018-05-21T06:35:01.515Z,2376.00
2018-05-21T06:36:01.527Z,2528.00
2018-05-21T06:37:01.593Z,2764.00
2018-05-21T06:38:01.559Z,3064.00
2018-05-21T06:39:01.672Z,3304.00
2018-05-21T06:40:01.595Z,3576.00
2018-05-21T06:41:01.701Z,3880.00
2018-05-21T06:42:01.628Z,4064.00
2018-05-21T06:43:01.649Z,4316.00
2018-05-21T06:44:01.670Z,4308.00
2018-05-21T06:45:01.678Z,4312.00
2018-05-21T06:46:01.701Z,4412.00
2018-05-21T06:47:01.714Z,4740.00
2018-05-21T06:48:01.736Z,4648.00
2018-05-21T06:49:01.753Z,4732.00
2018-05-21T06:50:01.766Z,4664.00
2018-05-21T06:51:01.783Z,3440.00
2018-05-21T06:52:01.806Z,3172.00
2018-05-21T06:53:01.818Z,2716.00
2018-05-21T06:54:01.835Z,2856.00
2018-05-21T06:55:01.910Z,3536.00
2018-05-21T06:56:01.876Z,4952.00
2018-05-21T06:57:01.890Z,5440.00
2018-05-21T06:58:01.912Z,5712.00
2018-05-21T06:59:01.934Z,5716.00
2018-05-21T07:00:01.943Z,5756.00
2018-05-21T07:01:01.965Z,5724.00
2018-05-21T07:02:01.982Z,5916.00
2018-05-21T07:03:02.000Z,5832.00
2018-05-21T07:04:02.016Z,5912.00
2018-05-21T07:05:02.043Z,6172.00
2018-05-21T07:06:02.071Z,6320.00
2018-05-21T07:07:02.075Z,6600.00
2018-05-21T07:08:02.188Z,6576.00
2018-05-21T07:09:02.124Z,6548.00
2018-05-21T07:10:02.127Z,6472.00
2018-05-21T07:11:02.140Z,6528.00
2018-05-21T07:12:02.159Z,6580.00
2018-05-21T07:13:02.230Z,6648.00
2018-05-21T07:14:02.197Z,6680.00
2018-05-21T07:15:02.212Z,6796.00
2018-05-21T07:16:02.242Z,6692.00
2018-05-21T07:17:02.247Z,6620.00
2018-05-21T07:18:02.282Z,6720.00
2018-05-21T07:19:02.291Z,6944.00
2018-05-21T07:20:02.304Z,6776.00
2018-05-21T07:21:02.325Z,6844.00
2018-05-21T07:22:02.346Z,7212.00
2018-05-21T07:23:02.363Z,5300.00
2018-05-21T07:24:02.383Z,4900.00
2018-05-21T07:25:02.401Z,5704.00
2018-05-21T07:26:02.416Z,4800.00
2018-05-21T07:27:02.441Z,5860.00
2018-05-21T07:28:02.459Z,6908.00
2018-05-21T07:29:02.477Z,7052.00
2018-05-21T07:30:02.495Z,6472.00
2018-05-21T07:31:02.514Z,7400.00
2018-05-21T07:32:02.541Z,6772.00
2018-05-21T07:33:02.547Z,7688.00
2018-05-21T07:34:02.571Z,7736.00
2018-05-21T07:35:02.592Z,6632.00
2018-05-21T07:36:02.813Z,7764.00
2018-05-21T07:37:02.881Z,8008.00
2018-05-21T07:38:02.646Z,8236.00
2018-05-21T07:39:02.660Z,8524.00
2018-05-21T07:40:02.683Z,8456.00
2018-05-21T07:41:02.902Z,8604.00
2018-05-21T07:42:02.930Z,8452.00
2018-05-21T07:43:02.794Z,8612.00
2018-05-21T07:44:02.759Z,8472.00
2018-05-21T07:45:02.779Z,8764.00
2018-05-21T07:46:02.797Z,8012.00
2018-05-21T07:47:02.818Z,7964.00
2018-05-21T07:48:02.834Z,6464.00
2018-05-21T07:49:02.852Z,9104.00
2018-05-21T07:50:02.917Z,9060.00
2018-05-21T07:51:02.892Z,9152.00
2018-05-21T07:52:02.916Z,8788.00
2018-05-21T07:53:02.928Z,9232.00
2018-05-21T07:54:02.953Z,9492.00
2018-05-21T07:55:02.972Z,9504.00
2018-05-21T07:56:03.058Z,9224.00
2018-05-21T07:57:03.009Z,9564.00
2018-05-21T07:58:03.031Z,9356.00
2018-05-21T07:59:03.049Z,9180.00
2018-05-21T08:00:03.071Z,9396.00
2018-05-21T08:01:03.086Z,9444.00
2018-05-21T08:02:03.108Z,9668.00
2018-05-21T08:03:03.127Z,9716.00
2018-05-21T08:04:03.146Z,9824.00
2018-05-21T08:05:03.319Z,9988.00
2018-05-21T08:06:03.183Z,10116.00
2018-05-21T08:07:03.210Z,10200.00
2018-05-21T08:08:03.225Z,10204.00
2018-05-21T08:09:03.246Z,10304.00
2018-05-21T08:10:03.267Z,10292.00
2018-05-21T08:11:03.290Z,10364.00
2018-05-21T08:12:03.304Z,10476.00
2018-05-21T08:13:03.330Z,10108.00
2018-05-21T08:14:03.372Z,10584.00
2018-05-21T08:15:03.371Z,10668.00
2018-05-21T08:16:03.398Z,10536.00
2018-05-21T08:17:03.411Z,10340.00
2018-05-21T08:18:03.430Z,10568.00
2018-05-21T08:19:03.495Z,10504.00
2018-05-21T08:20:03.473Z,10520.00
2018-05-21T08:21:03.490Z,10240.00
2018-05-21T08:22:03.515Z,10572.00
2018-05-21T08:23:03.529Z,10788.00
2018-05-21T08:24:03.554Z,10552.00
2018-05-21T08:25:03.678Z,10696.00
2018-05-21T08:26:03.593Z,10892.00
2018-05-21T08:27:03.616Z,11076.00
2018-05-21T08:28:03.643Z,11152.00
2018-05-21T08:29:03.656Z,11060.00
2018-05-21T08:30:03.677Z,11100.00
2018-05-21T08:31:03.785Z,11140.00
2018-05-21T08:32:03.711Z,11196.00
2018-05-21T08:33:03.734Z,11368.00
2018-05-21T08:34:03.760Z,11448.00
2018-05-21T08:35:03.775Z,11500.00
2018-05-21T08:36:03.800Z,11548.00
2018-05-21T08:37:03.874Z,11568.00
2018-05-21T08:38:03.841Z,11616.00
2018-05-21T08:39:03.858Z,11652.00
2018-05-21T08:40:03.877Z,11688.00
2018-05-21T08:41:03.898Z,11660.00
2018-05-21T08:42:03.924Z,11492.00
2018-05-21T08:43:03.936Z,11548.00
2018-05-21T08:44:03.957Z,11396.00
2018-05-21T08:45:03.985Z,11560.00
2018-05-21T08:46:04.005Z,11752.00
2018-05-21T08:47:04.026Z,11788.00
2018-05-21T08:48:04.045Z,11776.00
2018-05-21T08:49:04.065Z,11776.00
2018-05-21T08:50:04.091Z,11704.00
2018-05-21T08:51:04.106Z,11976.00
2018-05-21T08:52:04.133Z,11940.00
2018-05-21T08:53:04.154Z,12136.00
2018-05-21T08:54:04.171Z,12068.00
2018-05-21T08:55:04.193Z,12204.00
2018-05-21T08:56:04.214Z,12152.00
2018-05-21T08:57:04.237Z,12128.00
2018-05-21T08:58:04.253Z,12248.00
2018-05-21T08:59:04.274Z,12320.00
2018-05-21T09:00:04.299Z,12312.00
2018-05-21T09:01:04.324Z,12340.00
2018-05-21T09:02:04.338Z,12232.00
2018-05-21T09:03:04.363Z,12336.00
2018-05-21T09:04:04.388Z,12456.00
2018-05-21T09:05:04.406Z,12616.00
2018-05-21T09:06:04.431Z,12652.00
2018-05-21T09:07:04.456Z,12708.00
2018-05-21T09:08:04.472Z,12724.00
2018-05-21T09:09:04.499Z,12688.00
2018-05-21T09:10:04.582Z,12732.00
2018-05-21T09:11:04.544Z,12812.00
2018-05-21T09:12:04.615Z,12864.00
2018-05-21T09:13:04.632Z,12928.00
2018-05-21T09:14:04.665Z,12940.00
2018-05-21T09:15:04.630Z,12732.00
2018-05-21T09:16:04.648Z,12820.00
2018-05-21T09:17:04.673Z,12808.00
2018-05-21T09:19:04.777Z,12948.00
2018-05-21T09:20:04.790Z,12928.00
2018-05-21T09:21:04.775Z,12524.00
2018-05-21T09:22:04.791Z,13048.00
2018-05-21T09:23:04.839Z,13196.00
2018-05-21T09:24:04.886Z,13364.00
2018-05-21T09:25:04.931Z,13360.00
2018-05-21T09:26:04.982Z,13212.00
2018-05-21T09:27:04.943Z,13276.00
2018-05-21T09:28:04.912Z,13348.00
2018-05-21T09:29:04.929Z,13188.00
2018-05-21T09:30:04.951Z,13240.00
2018-05-21T09:31:05.046Z,13380.00
2018-05-21T09:32:04.994Z,13364.00
2018-05-21T09:33:05.014Z,13396.00
2018-05-21T09:34:05.035Z,13340.00
2018-05-21T09:35:05.065Z,13276.00
2018-05-21T09:36:05.081Z,13212.00
2018-05-21T09:37:05.103Z,13408.00
2018-05-21T09:38:05.122Z,13376.00
2018-05-21T09:39:05.141Z,12980.00
2018-05-21T09:40:05.164Z,13100.00
2018-05-21T09:41:05.194Z,13212.00
2018-05-21T09:42:05.256Z,13056.00
2018-05-21T09:43:05.224Z,13208.00
2018-05-21T09:44:05.244Z,13072.00
2018-05-21T09:45:05.273Z,13116.00
2018-05-21T09:46:05.288Z,13052.00
2018-05-21T09:47:05.310Z,13092.00
2018-05-21T09:48:05.372Z,13144.00
2018-05-21T09:49:05.410Z,13100.00
2018-05-21T09:50:05.372Z,13204.00
2018-05-21T09:51:05.399Z,13364.00
2018-05-21T09:52:05.422Z,13456.00
2018-05-21T09:53:05.448Z,13372.00
2018-05-21T09:54:05.480Z,13184.00
2018-05-21T09:55:05.538Z,13092.00
2018-05-21T09:56:05.509Z,13504.00
2018-05-21T09:57:05.531Z,13540.00
2018-05-21T09:58:05.547Z,13648.00
2018-05-21T09:59:05.571Z,13664.00
2018-05-21T10:00:05.614Z,13468.00
2018-05-21T10:01:05.682Z,13472.00
2018-05-21T10:02:05.635Z,13456.00
2018-05-21T10:03:05.655Z,13664.00
2018-05-21T10:04:05.684Z,13708.00
2018-05-21T10:05:05.703Z,13788.00
2018-05-21T10:06:05.723Z,13644.00
2018-05-21T10:07:05.749Z,13684.00
2018-05-21T10:08:05.761Z,13732.00
2018-05-21T10:09:05.798Z,13736.00
2018-05-21T10:10:05.822Z,13744.00
2018-05-21T10:11:05.831Z,13872.00
2018-05-21T10:12:05.933Z,13888.00
2018-05-21T10:13:05.869Z,13944.00
2018-05-21T10:14:05.906Z,13908.00
2018-05-21T10:15:05.916Z,13956.00
2018-05-21T10:16:05.938Z,13976.00
2018-05-21T10:17:05.959Z,13912.00
2018-05-21T10:18:05.977Z,13972.00
2018-05-21T10:19:06.055Z,14008.00
2018-05-21T10:20:06.021Z,14020.00
2018-05-21T10:21:06.041Z,14064.00
2018-05-21T10:22:06.060Z,14112.00
2018-05-21T10:23:06.089Z,14148.00
2018-05-21T10:24:06.114Z,14184.00
2018-05-21T10:25:06.182Z,14208.00
2018-05-21T10:26:06.175Z,14208.00
2018-05-21T10:27:06.172Z,14204.00
2018-05-21T10:28:06.197Z,14204.00
2018-05-21T10:29:06.211Z,13660.00
2018-05-21T10:30:06.235Z,14296.00
2018-05-21T10:31:06.258Z,14372.00
2018-05-21T10:32:06.277Z,14344.00
2018-05-21T10:33:06.297Z,14320.00
2018-05-21T10:34:06.317Z,14376.00
2018-05-21T10:35:06.344Z,14348.00
2018-05-21T10:36:06.362Z,14368.00
2018-05-21T10:37:06.512Z,14336.00
2018-05-21T10:38:06.424Z,14348.00
2018-05-21T10:39:06.424Z,14420.00
2018-05-21T10:40:06.447Z,14424.00
2018-05-21T10:41:06.471Z,14444.00
2018-05-21T10:42:06.491Z,14484.00
2018-05-21T10:43:06.562Z,14512.00
2018-05-21T10:44:06.534Z,14292.00
2018-05-21T10:45:06.556Z,14500.00
2018-05-21T10:46:06.579Z,14520.00
2018-05-21T10:47:06.645Z,14528.00
2018-05-21T10:48:06.624Z,14532.00
2018-05-21T10:49:06.647Z,14632.00
2018-05-21T10:50:06.661Z,14668.00
2018-05-21T10:51:06.680Z,14676.00
2018-05-21T10:52:06.701Z,14708.00
2018-05-21T10:53:06.738Z,14680.00
2018-05-21T10:54:06.776Z,14680.00
2018-05-21T10:55:06.771Z,14712.00
2018-05-21T10:56:06.833Z,14692.00
2018-05-21T10:57:06.817Z,14696.00
2018-05-21T10:58:06.840Z,14744.00
2018-05-21T10:59:06.855Z,14724.00
2018-05-21T11:00:06.883Z,14804.00
2018-05-21T11:01:06.901Z,14816.00
2018-05-21T11:02:06.918Z,14804.00
2018-05-21T11:03:06.947Z,14708.00
2018-05-21T11:04:06.964Z,14832.00
2018-05-21T11:05:06.985Z,14812.00
2018-05-21T11:06:07.021Z,15040.00
2018-05-21T11:07:07.033Z,14668.00
2018-05-21T11:08:07.054Z,15104.00
2018-05-21T11:09:07.072Z,15072.00
2018-05-21T11:10:07.096Z,15104.00
2018-05-21T11:11:07.114Z,15104.00
2018-05-21T11:12:07.171Z,15136.00
2018-05-21T11:13:07.166Z,15040.00
2018-05-21T11:14:07.200Z,15072.00
2018-05-21T11:15:07.205Z,15200.00
2018-05-21T11:16:07.227Z,15136.00
2018-05-21T11:17:07.248Z,15168.00
2018-05-21T11:18:07.303Z,15104.00
2018-05-21T11:19:07.345Z,15168.00
2018-05-21T11:20:07.309Z,15200.00
2018-05-21T11:21:07.334Z,15136.00
2018-05-21T11:22:07.354Z,15168.00
2018-05-21T11:23:07.381Z,15200.00
2018-05-21T11:24:07.414Z,15264.00
2018-05-21T11:25:07.425Z,15264.00
2018-05-21T11:26:07.449Z,15232.00
2018-05-21T11:27:07.466Z,15264.00
2018-05-21T11:28:07.487Z,15328.00
2018-05-21T11:29:07.503Z,15328.00
2018-05-21T11:30:07.571Z,15360.00
2018-05-21T11:31:07.603Z,15328.00
2018-05-21T11:32:07.567Z,15328.00
2018-05-21T11:33:07.591Z,15328.00
2018-05-21T11:34:07.617Z,15360.00
2018-05-21T11:35:07.630Z,15360.00
2018-05-21T11:36:07.653Z,15328.00
2018-05-21T11:37:07.676Z,15424.00
2018-05-21T11:38:07.701Z,15456.00
2018-05-21T11:39:07.723Z,15360.00
2018-05-21T11:40:07.739Z,15264.00
2018-05-21T11:41:07.763Z,15392.00
2018-05-21T11:42:07.787Z,15360.00
2018-05-21T11:43:07.808Z,14148.00
2018-05-21T11:44:07.827Z,14804.00
2018-05-21T11:45:07.852Z,15296.00
2018-05-21T11:46:07.867Z,15680.00
2018-05-21T11:47:07.890Z,15424.00
2018-05-21T11:48:07.912Z,15456.00
2018-05-21T11:49:07.985Z,15424.00
2018-05-21T11:50:07.958Z,15488.00
2018-05-21T11:51:07.977Z,15520.00
2018-05-21T11:52:08.001Z,15456.00
2018-05-21T11:53:08.026Z,15520.00
2018-05-21T11:54:08.046Z,15520.00
2018-05-21T11:55:08.066Z,15520.00
2018-05-21T11:56:08.089Z,15552.00
2018-05-21T11:57:08.106Z,15520.00
2018-05-21T11:58:08.134Z,15488.00
2018-05-21T11:59:08.148Z,15488.00
2018-05-21T12:00:08.175Z,15552.00
2018-05-21T12:01:08.250Z,15584.00
2018-05-21T12:02:08.317Z,15584.00
2018-05-21T12:03:08.260Z,15584.00
2018-05-21T12:04:08.264Z,15616.00
2018-05-21T12:05:08.281Z,15616.00
2018-05-21T12:06:08.304Z,15520.00
2018-05-21T12:07:08.329Z,15456.00
2018-05-21T12:08:08.344Z,15744.00
2018-05-21T12:09:08.371Z,15744.00
2018-05-21T12:10:08.400Z,15712.00
2018-05-21T12:11:08.407Z,15680.00
2018-05-21T12:12:08.428Z,15712.00
2018-05-21T12:13:08.504Z,15712.00
2018-05-21T12:14:08.478Z,15680.00
2018-05-21T12:15:08.503Z,15680.00
2018-05-21T12:16:08.520Z,15680.00
2018-05-21T12:17:08.536Z,15680.00
2018-05-21T12:18:08.564Z,15744.00
2018-05-21T12:19:08.587Z,15712.00
2018-05-21T12:20:08.609Z,15712.00
2018-05-21T12:21:08.623Z,15680.00
2018-05-21T12:22:08.651Z,15680.00
2018-05-21T12:23:08.664Z,15680.00
2018-05-21T12:24:08.688Z,15680.00
2018-05-21T12:25:08.711Z,15648.00
2018-05-21T12:26:08.739Z,15648.00
2018-05-21T12:27:08.760Z,15520.00
2018-05-21T12:28:08.780Z,15456.00
2018-05-21T12:29:08.805Z,15520.00